createdAt,value
2018-08-20T00:01:37.520Z,76.84
2018-08-20T00:04:07.894Z,77.75
2018-08-20T00:06:49.250Z,78.04
2018-08-20T00:09:18.399Z,78.15
2018-08-20T00:11:47.367Z,78.31
2018-08-20T00:14:18.788Z,78.02
2018-08-20T00:16:47.288Z,77.56
2018-08-20T00:19:15.726Z,78.44
2018-08-20T00:21:45.097Z,78.98
2018-08-20T00:24:13.553Z,78.25
2018-08-20T00:26:41.949Z,77.64
2018-08-20T00:29:10.421Z,78.10
2018-08-20T00:31:38.848Z,78.71
2018-08-20T00:34:07.287Z,77.84
2018-08-20T00:36:35.792Z,78.54
2018-08-20T00:39:06.092Z,78.02
2018-08-20T00:41:34.492Z,78.44
2018-08-20T00:44:04.478Z,79.36
2018-08-20T00:46:32.905Z,78.49
2018-08-20T00:49:01.519Z,77.39
2018-08-20T00:51:29.946Z,77.13
2018-08-20T00:53:58.389Z,76.36
2018-08-20T00:56:26.756Z,75.28
2018-08-20T00:58:55.520Z,74.73
2018-08-20T01:01:23.924Z,74.93
2018-08-20T01:03:52.432Z,75.31
2018-08-20T01:06:20.844Z,75.25
2018-08-20T01:08:49.288Z,75.40
2018-08-20T01:11:17.702Z,76.35
2018-08-20T01:13:46.201Z,75.47
2018-08-20T01:16:14.593Z,75.91
2018-08-20T01:18:43.049Z,76.02
2018-08-20T01:21:11.649Z,75.30
2018-08-20T01:23:40.049Z,76.53
2018-08-20T01:26:08.549Z,75.81
2018-08-20T01:28:36.975Z,76.12
2018-08-20T01:31:05.888Z,75.05
2018-08-20T01:33:34.339Z,75.12
2018-08-20T01:36:02.759Z,75.44
2018-08-20T01:38:31.162Z,75.24
2018-08-20T01:40:59.662Z,76.52
2018-08-20T01:43:28.108Z,76.32
2018-08-20T01:45:56.628Z,75.58
2018-08-20T01:48:25.053Z,76.25
2018-08-20T01:50:53.429Z,76.41
2018-08-20T01:53:21.881Z,76.62
2018-08-20T01:55:50.299Z,76.12
2018-08-20T01:58:18.711Z,76.65
2018-08-20T02:00:47.152Z,76.95
2018-08-20T02:03:15.616Z,76.32
2018-08-20T02:05:44.393Z,76.38
2018-08-20T02:08:12.831Z,77.08
2018-08-20T02:10:41.313Z,76.71
2018-08-20T02:13:10.029Z,76.69
2018-08-20T02:15:39.296Z,76.77
2018-08-20T02:18:09.789Z,77.19
2018-08-20T02:20:38.262Z,77.57
2018-08-20T02:23:06.912Z,77.31
2018-08-20T02:25:35.480Z,77.24
2018-08-20T02:28:04.036Z,76.93
2018-08-20T02:30:32.456Z,77.35
2018-08-20T02:33:00.862Z,76.79
2018-08-20T02:35:29.276Z,77.49
2018-08-20T02:37:57.779Z,76.98
2018-08-20T02:40:26.279Z,77.06
2018-08-20T02:42:54.732Z,77.91
2018-08-20T02:45:23.183Z,77.95
2018-08-20T02:47:51.644Z,77.45
2018-08-20T02:50:20.173Z,77.42
2018-08-20T02:52:48.576Z,77.36
2018-08-20T02:55:17.032Z,77.52
2018-08-20T02:57:45.719Z,78.19
2018-08-20T03:00:14.856Z,77.52
2018-08-20T03:02:43.314Z,78.20
2018-08-20T03:05:12.860Z,78.12
2018-08-20T03:07:41.544Z,77.96
2018-08-20T03:10:11.742Z,78.98
2018-08-20T03:12:40.256Z,78.23
2018-08-20T03:15:09.833Z,77.89
2018-08-20T03:17:38.204Z,78.00
2018-08-20T03:20:06.823Z,78.16
2018-08-20T03:22:35.323Z,78.76
2018-08-20T03:25:03.828Z,77.92
2018-08-20T03:27:32.239Z,78.88
2018-08-20T03:30:00.623Z,77.97
2018-08-20T03:32:29.043Z,77.64
2018-08-20T03:34:58.022Z,78.84
2018-08-20T03:37:26.492Z,77.80
2018-08-20T03:39:54.934Z,78.47
2018-08-20T03:42:23.364Z,78.47
2018-08-20T03:44:51.824Z,78.36
2018-08-20T03:47:20.230Z,78.44
2018-08-20T03:49:48.934Z,77.48
2018-08-20T03:52:17.416Z,77.73
2018-08-20T03:54:45.848Z,78.12
2018-08-20T03:57:14.266Z,77.63
2018-08-20T03:59:42.733Z,78.25
2018-08-20T04:02:11.196Z,77.99
2018-08-20T04:04:39.603Z,78.43
2018-08-20T04:07:08.969Z,77.94
2018-08-20T04:09:37.390Z,78.50
2018-08-20T04:12:05.798Z,78.26
2018-08-20T04:14:34.219Z,78.28
2018-08-20T04:17:02.652Z,78.53
2018-08-20T04:19:31.087Z,78.02
2018-08-20T04:21:59.851Z,78.05
2018-08-20T04:24:28.310Z,78.45
2018-08-20T04:26:56.740Z,78.08
2018-08-20T04:29:25.154Z,78.41
2018-08-20T04:31:53.562Z,78.34
2018-08-20T04:34:21.940Z,78.58
2018-08-20T04:36:51.297Z,78.19
2018-08-20T04:39:19.832Z,78.24
2018-08-20T04:41:48.261Z,78.34
2018-08-20T04:44:16.732Z,79.13
2018-08-20T04:46:45.147Z,78.89
2018-08-20T04:49:13.611Z,79.35
2018-08-20T04:51:42.076Z,78.50
2018-08-20T04:54:10.493Z,79.14
2018-08-20T04:56:38.955Z,79.44
2018-08-20T04:59:07.401Z,79.03
2018-08-20T05:01:35.831Z,79.08
2018-08-20T05:04:05.191Z,79.70
2018-08-20T05:06:33.613Z,79.89
2018-08-20T05:09:02.002Z,80.30
2018-08-20T05:11:30.448Z,80.34
2018-08-20T05:13:58.853Z,80.50
2018-08-20T05:16:27.223Z,80.05
2018-08-20T05:18:55.700Z,80.18
2018-08-20T05:21:24.140Z,81.02
2018-08-20T05:23:53.125Z,80.09
2018-08-20T05:26:21.668Z,80.03
2018-08-20T05:28:50.041Z,80.57
2018-08-20T05:31:19.545Z,79.74
2018-08-20T05:33:47.952Z,80.69
2018-08-20T05:36:16.425Z,80.22
2018-08-20T05:38:44.821Z,80.70
2018-08-20T05:41:13.323Z,79.67
2018-08-20T05:43:41.697Z,80.68
2018-08-20T05:46:10.097Z,80.48
2018-08-20T05:48:38.588Z,80.22
2018-08-20T05:51:07.050Z,79.82
2018-08-20T05:53:35.485Z,80.27
2018-08-20T05:56:03.868Z,79.99
2018-08-20T05:58:32.314Z,80.11
2018-08-20T06:01:00.772Z,80.27
2018-08-20T06:03:29.227Z,80.66
2018-08-20T06:05:57.633Z,81.37
2018-08-20T06:08:26.064Z,81.54
2018-08-20T06:10:54.543Z,81.55
2018-08-20T06:13:23.155Z,80.87
2018-08-20T06:15:51.568Z,81.55
2018-08-20T06:18:19.971Z,81.49
2018-08-20T06:20:48.364Z,81.25
2018-08-20T06:23:18.684Z,81.42
2018-08-20T06:25:47.720Z,81.01
2018-08-20T06:28:16.513Z,81.66
2018-08-20T06:30:44.934Z,81.13
2018-08-20T06:33:13.320Z,82.00
2018-08-20T06:35:41.778Z,81.62
2018-08-20T06:38:10.207Z,81.92
2018-08-20T06:40:38.700Z,82.32
2018-08-20T06:43:07.110Z,81.77
2018-08-20T06:45:35.532Z,82.21
2018-08-20T06:48:04.068Z,82.20
2018-08-20T06:50:32.501Z,81.70
2018-08-20T06:53:00.915Z,81.46
2018-08-20T06:55:29.344Z,81.72
2018-08-20T06:57:57.772Z,82.66
2018-08-20T07:00:26.328Z,82.92
2018-08-20T07:02:54.707Z,83.82
2018-08-20T07:05:23.153Z,84.43
2018-08-20T07:07:51.571Z,84.11
2018-08-20T07:10:20.039Z,84.61
2018-08-20T07:12:48.445Z,85.44
2018-08-20T07:15:16.860Z,85.10
2018-08-20T07:17:45.466Z,85.04
2018-08-20T07:20:15.510Z,84.73
2018-08-20T07:22:44.208Z,85.24
2018-08-20T07:25:12.596Z,85.89
2018-08-20T07:27:41.024Z,85.58
2018-08-20T07:30:11.082Z,85.87
2018-08-20T07:32:39.555Z,86.29
2018-08-20T07:35:08.004Z,85.11
2018-08-20T07:37:36.438Z,85.31
2018-08-20T07:40:07.271Z,85.49
2018-08-20T07:42:35.697Z,85.62
2018-08-20T07:45:04.181Z,85.65
2018-08-20T07:47:32.635Z,85.54
2018-08-20T07:50:01.103Z,85.17
2018-08-20T07:52:29.500Z,85.59
2018-08-20T07:54:57.886Z,85.68
2018-08-20T07:57:26.313Z,85.79
2018-08-20T07:59:54.739Z,85.89
2018-08-20T08:02:23.142Z,86.84
2018-08-20T08:04:51.588Z,87.04
2018-08-20T08:07:20.104Z,86.63
2018-08-20T08:09:48.549Z,87.64
2018-08-20T08:12:17.593Z,88.00
2018-08-20T08:14:46.032Z,88.16
2018-08-20T08:17:14.460Z,87.33
2018-08-20T08:19:42.901Z,87.87
2018-08-20T08:22:11.861Z,88.26
2018-08-20T08:24:40.238Z,88.81
2018-08-20T08:27:08.780Z,88.84
2018-08-20T08:29:37.412Z,89.56
2018-08-20T08:32:05.938Z,89.26
2018-08-20T08:34:34.463Z,89.10
2018-08-20T08:37:03.075Z,89.78
2018-08-20T08:39:31.516Z,88.98
2018-08-20T08:41:59.985Z,88.99
2018-08-20T08:44:28.364Z,89.75
2018-08-20T08:46:56.821Z,89.81
2018-08-20T08:49:25.309Z,90.26
2018-08-20T08:51:53.776Z,90.40
2018-08-20T08:54:22.219Z,89.95
2018-08-20T08:56:50.663Z,90.34
2018-08-20T08:59:19.204Z,89.77
2018-08-20T09:01:47.703Z,90.77
2018-08-20T09:04:16.143Z,90.44
2018-08-20T09:06:44.574Z,89.51
2018-08-20T09:09:12.962Z,90.53
2018-08-20T09:11:41.413Z,89.75
2018-08-20T09:14:09.880Z,89.96
2018-08-20T09:16:38.349Z,90.98
2018-08-20T09:19:07.413Z,90.88
2018-08-20T09:21:35.964Z,90.78
2018-08-20T09:24:04.474Z,90.62
2018-08-20T09:26:33.109Z,90.16
2018-08-20T09:29:01.480Z,90.60
2018-08-20T09:31:29.958Z,90.44
2018-08-20T09:33:58.425Z,90.12
2018-08-20T09:36:26.855Z,90.81
2018-08-20T09:38:55.281Z,90.23
2018-08-20T09:41:23.717Z,90.09
2018-08-20T09:43:52.271Z,90.18
2018-08-20T09:46:20.634Z,91.02
2018-08-20T09:48:49.081Z,90.45
2018-08-20T09:51:17.520Z,91.26
2018-08-20T09:53:45.954Z,90.76
2018-08-20T09:56:14.454Z,91.09
2018-08-20T09:58:42.965Z,90.99
2018-08-20T10:01:11.439Z,91.06
2018-08-20T10:03:43.993Z,91.53
2018-08-20T10:06:12.880Z,91.95
2018-08-20T10:08:41.354Z,91.74
2018-08-20T10:11:10.346Z,91.38
2018-08-20T10:13:38.812Z,91.75
2018-08-20T10:16:07.459Z,91.38
2018-08-20T10:18:36.020Z,91.38
2018-08-20T10:21:04.408Z,91.26
2018-08-20T10:23:32.870Z,92.11
2018-08-20T10:26:01.360Z,91.07
2018-08-20T10:28:29.760Z,91.77
2018-08-20T10:30:58.224Z,91.12
2018-08-20T10:33:26.744Z,90.91
2018-08-20T10:35:55.201Z,91.81
2018-08-20T10:38:23.661Z,91.23
2018-08-20T10:40:52.145Z,90.77
2018-08-20T10:43:20.579Z,90.98
2018-08-20T10:45:54.428Z,91.40
2018-08-20T10:48:22.924Z,91.07
2018-08-20T10:50:51.416Z,91.62
2018-08-20T10:53:19.764Z,90.77
2018-08-20T10:55:48.236Z,91.14
2018-08-20T10:58:16.743Z,90.57
2018-08-20T11:00:45.154Z,91.38
2018-08-20T11:03:13.788Z,90.79
2018-08-20T11:05:42.265Z,90.86
2018-08-20T11:08:10.761Z,91.05
2018-08-20T11:10:39.279Z,90.90
2018-08-20T11:13:07.723Z,90.70
2018-08-20T11:15:36.104Z,90.67
2018-08-20T11:18:04.622Z,90.17
2018-08-20T11:20:33.044Z,90.23
2018-08-20T11:23:01.462Z,89.75
2018-08-20T11:25:29.871Z,88.92
2018-08-20T11:27:58.281Z,88.55
2018-08-20T11:30:26.777Z,87.99
2018-08-20T11:32:55.224Z,88.26
2018-08-20T11:35:23.649Z,88.47
2018-08-20T11:37:52.102Z,87.10
2018-08-20T11:40:20.565Z,86.56
2018-08-20T11:42:49.059Z,87.88
2018-08-20T11:45:17.501Z,86.94
2018-08-20T11:47:45.929Z,86.59
2018-08-20T11:50:14.361Z,85.95
2018-08-20T11:52:42.770Z,84.75
2018-08-20T11:55:11.175Z,84.94
2018-08-20T11:57:39.604Z,85.12
2018-08-20T12:00:09.554Z,85.97
2018-08-20T12:02:38.068Z,84.86
2018-08-20T12:05:07.612Z,85.03
2018-08-20T12:07:36.165Z,84.68
2018-08-20T12:10:04.821Z,83.44
2018-08-20T12:12:33.829Z,83.09
2018-08-20T12:15:02.229Z,82.33
2018-08-20T12:17:30.647Z,81.85
2018-08-20T12:19:59.021Z,82.83
2018-08-20T12:22:27.438Z,82.56
2018-08-20T12:24:55.776Z,82.50
2018-08-20T12:27:24.191Z,82.63
2018-08-20T12:29:53.477Z,80.52
2018-08-20T12:32:21.980Z,80.62
2018-08-20T12:34:50.392Z,79.98
2018-08-20T12:37:18.786Z,79.60
2018-08-20T12:39:47.284Z,79.49
2018-08-20T12:42:15.643Z,81.23
2018-08-20T12:44:44.041Z,81.21
2018-08-20T12:47:12.536Z,81.67
2018-08-20T12:49:41.013Z,80.80
2018-08-20T12:52:09.805Z,80.32
2018-08-20T12:54:38.273Z,78.45
2018-08-20T12:57:06.780Z,77.44
2018-08-20T12:59:35.183Z,79.09
2018-08-20T13:02:03.636Z,78.03
2018-08-20T13:04:32.073Z,77.97
2018-08-20T13:07:00.548Z,77.95
2018-08-20T13:09:28.936Z,77.11
2018-08-20T13:11:57.345Z,77.24
2018-08-20T13:14:25.767Z,78.28
2018-08-20T13:16:54.187Z,76.86
2018-08-20T13:19:23.376Z,75.25
2018-08-20T13:21:51.823Z,74.59
2018-08-20T13:24:20.271Z,75.26
2018-08-20T13:26:48.715Z,74.71
2018-08-20T13:29:17.185Z,75.47
2018-08-20T13:31:45.562Z,75.13
2018-08-20T13:34:14.001Z,77.35
2018-08-20T13:36:42.467Z,78.76
2018-08-20T13:39:10.948Z,80.52
2018-08-20T13:41:39.411Z,80.47
2018-08-20T13:44:07.970Z,80.52
2018-08-20T13:46:36.396Z,80.59
2018-08-20T13:49:04.868Z,80.38
2018-08-20T13:51:33.300Z,80.75
2018-08-20T13:54:01.713Z,80.98
2018-08-20T13:56:30.134Z,80.23
2018-08-20T13:58:58.588Z,80.39
2018-08-20T14:01:27.042Z,80.76
2018-08-20T14:03:55.972Z,79.66
2018-08-20T14:06:24.448Z,79.71
2018-08-20T14:08:52.928Z,80.38
2018-08-20T14:11:21.405Z,78.92
2018-08-20T14:13:49.819Z,78.08
2018-08-20T14:16:18.241Z,77.42
2018-08-20T14:18:46.671Z,78.21
2018-08-20T14:21:16.750Z,78.31
2018-08-20T14:23:46.698Z,77.18
2018-08-20T14:26:15.227Z,76.39
2018-08-20T14:28:43.770Z,76.98
2018-08-20T14:31:12.295Z,77.87
2018-08-20T14:33:40.739Z,75.38
2018-08-20T14:36:09.828Z,75.25
2018-08-20T14:38:38.309Z,75.52
2018-08-20T14:41:06.952Z,75.18
2018-08-20T14:43:35.456Z,75.54
2018-08-20T14:46:09.119Z,76.08
2018-08-20T14:48:37.571Z,75.85
2018-08-20T14:51:06.116Z,76.10
2018-08-20T14:53:34.648Z,74.63
2018-08-20T14:56:03.047Z,75.26
2018-08-20T14:58:31.474Z,76.07
2018-08-20T15:00:59.970Z,74.22
2018-08-20T15:03:28.987Z,74.94
2018-08-20T15:05:57.361Z,74.50
2018-08-20T15:08:25.796Z,74.46
2018-08-20T15:10:54.283Z,74.14
2018-08-20T15:13:22.753Z,74.15
2018-08-20T15:15:51.212Z,74.09
2018-08-20T15:18:19.651Z,74.46
2018-08-20T15:20:48.128Z,74.10
2018-08-20T15:23:16.523Z,74.23
2018-08-20T15:25:44.993Z,73.64
2018-08-20T15:28:13.386Z,73.89
2018-08-20T15:30:41.860Z,74.02
2018-08-20T15:33:10.299Z,73.93
2018-08-20T15:35:38.749Z,73.54
2018-08-20T15:38:07.316Z,73.46
2018-08-20T15:40:35.761Z,73.84
2018-08-20T15:43:04.160Z,73.77
2018-08-20T15:45:32.590Z,74.51
2018-08-20T15:48:01.046Z,74.41
2018-08-20T15:50:29.478Z,74.16
2018-08-20T15:52:57.970Z,74.14
2018-08-20T15:55:26.317Z,73.82
2018-08-20T15:57:54.769Z,74.59
2018-08-20T16:00:23.212Z,74.51
2018-08-20T16:02:51.673Z,73.80
2018-08-20T16:05:20.123Z,72.95
2018-08-20T16:07:48.583Z,73.04
2018-08-20T16:10:16.989Z,73.31
2018-08-20T16:12:45.424Z,73.82
2018-08-20T16:15:13.853Z,71.58
2018-08-20T16:17:42.276Z,72.38
2018-08-20T16:20:10.768Z,73.34
2018-08-20T16:22:39.216Z,72.58
2018-08-20T16:25:08.274Z,73.43
2018-08-20T16:27:36.691Z,71.69
2018-08-20T16:30:08.087Z,72.69
2018-08-20T16:32:36.678Z,70.34
2018-08-20T16:35:05.300Z,70.62
2018-08-20T16:37:33.763Z,68.61
2018-08-20T16:40:02.227Z,69.35
2018-08-20T16:42:30.717Z,69.24
2018-08-20T16:44:59.402Z,69.47
2018-08-20T16:47:27.870Z,68.42
2018-08-20T16:49:56.910Z,68.01
2018-08-20T16:52:25.384Z,68.92
2018-08-20T16:54:53.871Z,68.40
2018-08-20T16:57:22.264Z,68.17
2018-08-20T16:59:50.738Z,68.30
2018-08-20T17:02:25.181Z,68.31
2018-08-20T17:04:53.841Z,68.94
2018-08-20T17:09:49.703Z,70.51
2018-08-20T17:12:18.148Z,71.18
2018-08-20T17:14:46.597Z,71.06
2018-08-20T17:17:15.056Z,71.66
2018-08-20T17:19:45.154Z,70.28
2018-08-20T17:22:13.698Z,71.51
2018-08-20T17:24:42.240Z,71.00
2018-08-20T17:27:11.387Z,71.83
2018-08-20T17:29:39.811Z,71.22
2018-08-20T17:32:09.490Z,71.36
2018-08-20T17:34:40.338Z,71.15
2018-08-20T17:37:08.904Z,71.17
2018-08-20T17:39:51.441Z,71.83
2018-08-20T17:42:19.953Z,70.80
2018-08-20T17:44:48.998Z,70.89
2018-08-20T17:47:22.712Z,71.51
2018-08-20T17:49:52.098Z,71.73
2018-08-20T17:52:21.324Z,72.05
2018-08-20T17:54:49.829Z,71.73
2018-08-20T17:57:18.316Z,71.17
2018-08-20T17:59:46.891Z,72.56
2018-08-20T18:02:22.650Z,73.39
2018-08-20T18:04:51.483Z,73.96
2018-08-20T18:07:19.894Z,75.15
2018-08-20T18:09:48.337Z,74.16
2018-08-20T18:12:16.822Z,74.16
2018-08-20T18:14:47.802Z,75.10
2018-08-20T18:17:16.799Z,74.98
2018-08-20T18:19:45.162Z,76.67
2018-08-20T18:22:13.621Z,76.76
2018-08-20T18:24:42.252Z,77.54
2018-08-20T18:27:11.405Z,77.27
2018-08-20T18:29:39.879Z,78.41
2018-08-20T18:32:09.083Z,78.49
2018-08-20T18:34:37.570Z,77.91
2018-08-20T18:37:06.048Z,78.97
2018-08-20T18:39:34.521Z,78.74
2018-08-20T18:42:04.823Z,78.63
2018-08-20T18:44:33.394Z,78.94
2018-08-20T18:47:01.925Z,79.52
2018-08-20T18:49:30.462Z,77.90
2018-08-20T18:52:05.137Z,79.12
2018-08-20T18:54:38.207Z,79.92
2018-08-20T18:57:07.053Z,79.73
2018-08-20T18:59:37.233Z,80.62
2018-08-20T19:02:06.230Z,80.22
2018-08-20T19:04:47.842Z,80.76
2018-08-20T19:07:16.736Z,81.10
2018-08-20T19:09:48.357Z,80.26
2018-08-20T19:12:16.899Z,81.01
2018-08-20T19:14:45.373Z,80.44
2018-08-20T19:17:19.327Z,80.94
2018-08-20T19:19:48.883Z,81.17
2018-08-20T19:22:22.678Z,80.13
2018-08-20T19:24:51.157Z,80.61
2018-08-20T19:27:19.693Z,80.97
2018-08-20T19:29:48.185Z,81.53
2018-08-20T19:32:16.685Z,81.86
2018-08-20T19:34:45.173Z,81.57
2018-08-20T19:37:13.582Z,82.01
2018-08-20T19:39:42.052Z,81.56
2018-08-20T19:42:14.106Z,81.69
2018-08-20T19:44:43.033Z,81.65
2018-08-20T19:49:53.692Z,82.71
2018-08-20T19:52:22.130Z,82.66
2018-08-20T19:54:54.744Z,82.33
2018-08-20T19:57:23.192Z,82.48
2018-08-20T19:59:52.499Z,81.81
2018-08-20T20:02:21.011Z,82.29
2018-08-20T20:04:49.437Z,82.05
2018-08-20T20:07:17.900Z,82.45
2018-08-20T20:09:46.294Z,82.93
2018-08-20T20:12:14.749Z,82.19
2018-08-20T20:14:47.212Z,82.54
2018-08-20T20:17:15.691Z,81.87
2018-08-20T20:19:44.288Z,82.17
2018-08-20T20:22:14.692Z,83.21
2018-08-20T20:24:43.131Z,82.83
2018-08-20T20:27:11.612Z,82.11
2018-08-20T20:29:40.145Z,82.12
2018-08-20T20:32:08.656Z,82.64
2018-08-20T20:34:37.185Z,82.05
2018-08-20T20:37:05.662Z,82.10
2018-08-20T20:39:34.102Z,82.44
2018-08-20T20:42:02.580Z,82.16
2018-08-20T20:44:31.029Z,82.73
2018-08-20T20:46:59.470Z,82.90
2018-08-20T20:49:27.843Z,82.81
2018-08-20T20:51:56.239Z,83.12
2018-08-20T20:54:24.672Z,82.84
2018-08-20T20:56:53.094Z,83.00
2018-08-20T20:59:21.568Z,83.23
2018-08-20T21:01:50.156Z,83.75
2018-08-20T21:04:18.611Z,83.91
2018-08-20T21:06:47.925Z,83.23
2018-08-20T21:09:16.573Z,83.75
2018-08-20T21:11:44.998Z,83.03
2018-08-20T21:14:13.607Z,83.33
2018-08-20T21:16:41.936Z,83.15
2018-08-20T21:19:10.440Z,82.93
2018-08-20T21:21:38.901Z,83.06
2018-08-20T21:24:08.047Z,83.19
2018-08-20T21:26:36.517Z,83.42
2018-08-20T21:29:04.989Z,83.35
2018-08-20T21:31:43.272Z,83.87
2018-08-20T21:34:11.742Z,83.47
2018-08-20T21:36:40.188Z,83.22
2018-08-20T21:39:09.720Z,84.51
2018-08-20T21:41:38.176Z,83.79
2018-08-20T21:44:06.780Z,84.72
2018-08-20T21:46:35.192Z,84.09
2018-08-20T21:49:03.658Z,84.62
2018-08-20T21:51:37.392Z,84.23
2018-08-20T21:54:05.850Z,84.27
2018-08-20T21:56:45.486Z,84.47
2018-08-20T21:59:13.916Z,84.41
2018-08-20T22:01:42.376Z,85.18
2018-08-20T22:04:16.041Z,85.63
2018-08-20T22:06:44.471Z,84.72
2018-08-20T22:09:12.876Z,85.56
2018-08-20T22:11:41.492Z,85.31
2018-08-20T22:14:09.964Z,84.91
2018-08-20T22:16:38.397Z,85.58
2018-08-20T22:19:06.848Z,85.20
2018-08-20T22:21:35.252Z,85.44
2018-08-20T22:24:04.230Z,84.68
2018-08-20T22:26:33.232Z,85.54
2018-08-20T22:29:01.687Z,84.90
2018-08-20T22:31:30.136Z,84.97
2018-08-20T22:34:03.731Z,85.01
2018-08-20T22:36:32.759Z,84.71
2018-08-20T22:39:02.381Z,84.44
2018-08-20T22:41:31.677Z,85.07
2018-08-20T22:44:00.094Z,85.08
2018-08-20T22:46:28.518Z,84.29
2018-08-20T22:48:58.327Z,85.26
2018-08-20T22:51:28.074Z,85.29
2018-08-20T22:54:00.297Z,85.58
2018-08-20T22:56:31.057Z,85.75
2018-08-20T22:59:10.181Z,86.05
2018-08-20T23:01:38.649Z,85.56
2018-08-20T23:04:07.519Z,86.16
2018-08-20T23:06:35.937Z,86.20
2018-08-20T23:09:20.788Z,86.15
2018-08-20T23:11:49.313Z,86.37
2018-08-20T23:14:17.761Z,86.27
2018-08-20T23:16:49.413Z,86.60
2018-08-20T23:19:17.908Z,86.50
2018-08-20T23:21:47.357Z,85.84
2018-08-20T23:24:17.342Z,85.92
2018-08-20T23:26:45.780Z,85.50
2018-08-20T23:29:18.364Z,85.90
2018-08-20T23:31:46.793Z,85.73
2018-08-20T23:34:16.201Z,86.06
2018-08-20T23:36:44.628Z,85.19
2018-08-20T23:39:14.312Z,83.84
2018-08-20T23:41:42.792Z,84.18
2018-08-20T23:44:11.352Z,84.36
2018-08-20T23:46:41.405Z,84.42
2018-08-20T23:49:09.841Z,85.72
2018-08-20T23:51:38.384Z,85.30
2018-08-20T23:54:06.861Z,86.11
2018-08-20T23:56:35.321Z,86.09
2018-08-20T23:59:03.839Z,85.58
